createdAt,value
2023-05-23T00:00:01.826Z,981.56
2023-05-23T00:01:01.829Z,981.57
2023-05-23T00:02:01.894Z,981.58
2023-05-23T00:03:01.901Z,981.58
2023-05-23T00:04:02.001Z,981.56
2023-05-23T00:05:01.799Z,981.54
2023-05-23T00:06:01.888Z,981.48
2023-05-23T00:07:01.761Z,981.54
2023-05-23T00:08:01.837Z,981.52
2023-05-23T00:09:01.783Z,981.51
2023-05-23T00:10:01.784Z,981.49
2023-05-23T00:11:01.757Z,981.48
2023-05-23T00:12:01.760Z,981.51
2023-05-23T00:13:01.706Z,981.47
2023-05-23T00:14:01.715Z,981.48
2023-05-23T00:15:01.687Z,981.49
2023-05-23T00:16:01.723Z,981.51
2023-05-23T00:17:01.794Z,981.54
2023-05-23T00:18:01.693Z,981.54
2023-05-23T00:19:01.725Z,981.54
2023-05-23T00:20:01.659Z,981.56
2023-05-23T00:21:01.651Z,981.58
2023-05-23T00:22:01.793Z,981.58
2023-05-23T00:23:01.667Z,981.58
2023-05-23T00:24:01.662Z,981.57
2023-05-23T00:25:01.613Z,981.57
2023-05-23T00:26:01.641Z,981.56
2023-05-23T00:27:01.591Z,981.59
2023-05-23T00:28:01.598Z,981.60
2023-05-23T00:29:01.595Z,981.61
2023-05-23T00:30:01.594Z,981.61
2023-05-23T00:31:01.611Z,981.63
2023-05-23T00:32:01.641Z,981.65
2023-05-23T00:33:01.607Z,981.65
2023-05-23T00:34:01.555Z,981.65
2023-05-23T00:35:01.557Z,981.66
2023-05-23T00:36:01.537Z,981.66
2023-05-23T00:37:02.216Z,981.68
2023-05-23T00:38:02.471Z,981.69
2023-05-23T00:39:01.519Z,981.71
2023-05-23T00:40:01.513Z,981.72
2023-05-23T00:41:01.493Z,981.76
2023-05-23T00:42:01.495Z,981.76
2023-05-23T00:43:01.470Z,981.75
2023-05-23T00:44:01.489Z,981.76
2023-05-23T00:45:02.317Z,981.77
2023-05-23T00:46:01.874Z,981.78
2023-05-23T00:47:02.410Z,981.77
2023-05-23T00:48:01.963Z,981.78
2023-05-23T00:49:01.419Z,981.81
2023-05-23T00:50:01.551Z,981.81
2023-05-23T00:51:01.419Z,981.82
2023-05-23T00:52:02.379Z,981.83
2023-05-23T00:53:01.430Z,981.81
2023-05-23T00:54:01.431Z,981.78
2023-05-23T00:55:01.381Z,981.79
2023-05-23T00:56:01.387Z,981.80
2023-05-23T00:57:01.359Z,981.80
2023-05-23T00:58:01.379Z,981.80
2023-05-23T00:59:01.379Z,981.81
2023-05-23T01:00:01.360Z,981.80
2023-05-23T01:01:01.334Z,981.79
2023-05-23T01:02:01.406Z,981.81
2023-05-23T01:03:01.427Z,981.81
2023-05-23T01:04:01.357Z,981.80
2023-05-23T01:05:01.306Z,981.79
2023-05-23T01:06:01.302Z,981.79
2023-05-23T01:07:01.330Z,981.77
2023-05-23T01:08:01.313Z,981.77
2023-05-23T01:09:01.353Z,981.77
2023-05-23T01:10:01.375Z,981.76
2023-05-23T01:11:01.244Z,981.76
2023-05-23T01:12:01.330Z,981.76
2023-05-23T01:13:01.241Z,981.75
2023-05-23T01:14:01.247Z,981.77
2023-05-23T01:15:01.236Z,981.78
2023-05-23T01:16:02.900Z,981.79
2023-05-23T01:17:01.188Z,981.76
2023-05-23T01:18:01.272Z,981.78
2023-05-23T01:19:01.229Z,981.80
2023-05-23T01:20:01.219Z,981.79
2023-05-23T01:21:01.232Z,981.79
2023-05-23T01:22:01.166Z,981.78
2023-05-23T01:23:01.187Z,981.77
2023-05-23T01:24:01.156Z,981.75
2023-05-23T01:25:01.145Z,981.77
2023-05-23T01:26:01.245Z,981.78
2023-05-23T01:27:01.156Z,981.76
2023-05-23T01:28:01.125Z,981.76
2023-05-23T01:29:01.107Z,981.77
2023-05-23T01:30:01.151Z,981.76
2023-05-23T01:31:01.079Z,981.78
2023-05-23T01:32:01.143Z,981.77
2023-05-23T01:33:01.127Z,981.77
2023-05-23T01:34:01.087Z,981.79
2023-05-23T01:35:01.051Z,981.77
2023-05-23T01:36:01.058Z,981.77
2023-05-23T01:37:01.025Z,981.75
2023-05-23T01:38:01.049Z,981.74
2023-05-23T01:39:01.025Z,981.74
2023-05-23T01:40:01.015Z,981.71
2023-05-23T01:41:01.009Z,981.75
2023-05-23T01:42:01.104Z,981.74
2023-05-23T01:43:00.981Z,981.75
2023-05-23T01:44:01.011Z,981.77
2023-05-23T01:45:00.980Z,981.77
2023-05-23T01:46:01.065Z,981.78
2023-05-23T01:47:00.953Z,981.80
2023-05-23T01:48:00.984Z,981.81
2023-05-23T01:49:00.959Z,981.81
2023-05-23T01:50:00.937Z,981.80
2023-05-23T01:51:00.908Z,981.80
2023-05-23T01:52:00.961Z,981.81
2023-05-23T01:53:00.912Z,981.81
2023-05-23T01:54:00.896Z,981.80
2023-05-23T01:55:00.886Z,981.81
2023-05-23T01:56:00.904Z,981.79
2023-05-23T01:57:00.884Z,981.81
2023-05-23T01:58:00.974Z,981.82
2023-05-23T01:59:00.844Z,981.83
2023-05-23T02:00:00.873Z,981.86
2023-05-23T02:01:00.936Z,981.84
2023-05-23T02:02:00.836Z,981.84
2023-05-23T02:03:00.916Z,981.85
2023-05-23T02:04:00.852Z,981.85
2023-05-23T02:05:00.795Z,981.84
2023-05-23T02:06:00.829Z,981.83
2023-05-23T02:07:00.775Z,981.82
2023-05-23T02:08:00.796Z,981.82
2023-05-23T02:09:00.820Z,981.79
2023-05-23T02:10:00.775Z,981.79
2023-05-23T02:11:00.752Z,981.79
2023-05-23T02:12:00.780Z,981.80
2023-05-23T02:13:00.763Z,981.81
2023-05-23T02:14:00.816Z,981.84
2023-05-23T02:15:00.728Z,981.85
2023-05-23T02:16:00.713Z,981.89
2023-05-23T02:17:00.749Z,981.90
2023-05-23T02:18:00.746Z,981.90
2023-05-23T02:19:00.709Z,981.91
2023-05-23T02:20:00.679Z,981.91
2023-05-23T02:21:00.694Z,981.92
2023-05-23T02:22:00.696Z,981.93
2023-05-23T02:23:00.666Z,981.91
2023-05-23T02:24:00.672Z,981.90
2023-05-23T02:25:00.634Z,981.92
2023-05-23T02:26:00.752Z,981.89
2023-05-23T02:27:00.835Z,981.92
2023-05-23T02:28:00.683Z,981.96
2023-05-23T02:29:00.687Z,981.94
2023-05-23T02:30:00.693Z,981.97
2023-05-23T02:31:00.683Z,981.97
2023-05-23T02:32:00.589Z,981.95
2023-05-23T02:33:00.627Z,981.95
2023-05-23T02:34:00.614Z,981.98
2023-05-23T02:35:00.545Z,981.99
2023-05-23T02:36:00.594Z,982.01
2023-05-23T02:37:00.552Z,982.02
2023-05-23T02:38:00.562Z,982.05
2023-05-23T02:39:00.570Z,982.02
2023-05-23T02:40:00.520Z,982.03
2023-05-23T02:41:00.539Z,982.04
2023-05-23T02:42:00.563Z,982.03
2023-05-23T02:43:00.483Z,982.06
2023-05-23T02:44:00.514Z,982.07
2023-05-23T02:45:00.487Z,982.10
2023-05-23T02:46:00.615Z,982.10
2023-05-23T02:47:00.472Z,982.11
2023-05-23T02:48:00.547Z,982.13
2023-05-23T02:49:00.446Z,982.14
2023-05-23T02:50:00.430Z,982.16
2023-05-23T02:51:00.401Z,982.18
2023-05-23T02:52:00.421Z,982.17
2023-05-23T02:53:00.389Z,982.16
2023-05-23T02:54:00.412Z,982.14
2023-05-23T02:55:00.368Z,982.17
2023-05-23T02:56:00.402Z,982.15
2023-05-23T02:57:00.357Z,982.16
2023-05-23T02:58:00.374Z,982.17
2023-05-23T02:59:00.382Z,982.15
2023-05-23T03:00:00.408Z,982.15
2023-05-23T03:01:00.328Z,982.16
2023-05-23T03:02:00.441Z,982.18
2023-05-23T03:03:00.457Z,982.16
2023-05-23T03:04:00.408Z,982.18
2023-05-23T03:05:00.369Z,982.17
2023-05-23T03:06:00.313Z,982.16
2023-05-23T03:07:00.285Z,982.18
2023-05-23T03:08:00.369Z,982.18
2023-05-23T03:09:00.262Z,982.19
2023-05-23T03:10:00.237Z,982.19
2023-05-23T03:11:00.270Z,982.22
2023-05-23T03:12:00.279Z,982.23
2023-05-23T03:13:00.266Z,982.23
2023-05-23T03:14:00.209Z,982.23
2023-05-23T03:15:00.245Z,982.21
2023-05-23T03:16:00.285Z,982.21
2023-05-23T03:17:00.180Z,982.17
2023-05-23T03:18:00.300Z,982.18
2023-05-23T03:19:00.224Z,982.18
2023-05-23T03:20:00.207Z,982.21
2023-05-23T03:21:00.200Z,982.18
2023-05-23T03:22:00.153Z,982.21
2023-05-23T03:23:00.180Z,982.23
2023-05-23T03:24:00.162Z,982.22
2023-05-23T03:25:00.189Z,982.23
2023-05-23T03:26:00.165Z,982.26
2023-05-23T03:27:00.156Z,982.27
2023-05-23T03:28:00.105Z,982.28
2023-05-23T03:29:00.168Z,982.31
2023-05-23T03:30:00.107Z,982.31
2023-05-23T03:31:00.123Z,982.32
2023-05-23T03:32:00.277Z,982.38
2023-05-23T03:33:00.229Z,982.39
2023-05-23T03:34:00.175Z,982.42
2023-05-23T03:35:00.047Z,982.45
2023-05-23T03:36:00.042Z,982.46
2023-05-23T03:37:00.044Z,982.49
2023-05-23T03:38:00.068Z,982.49
2023-05-23T03:39:00.021Z,982.50
2023-05-23T03:40:00.038Z,982.50
2023-05-23T03:40:59.990Z,982.49
2023-05-23T03:41:59.983Z,982.50
2023-05-23T03:43:00.022Z,982.49
2023-05-23T03:43:59.965Z,982.49
2023-05-23T03:44:59.953Z,982.49
2023-05-23T03:45:59.976Z,982.46
2023-05-23T03:47:00.008Z,982.49
2023-05-23T03:48:00.005Z,982.48
2023-05-23T03:48:59.950Z,982.48
2023-05-23T03:50:00.042Z,982.50
2023-05-23T03:50:59.932Z,982.50
2023-05-23T03:51:59.905Z,982.51
2023-05-23T03:52:59.909Z,982.54
2023-05-23T03:53:59.894Z,982.56
2023-05-23T03:54:59.907Z,982.53
2023-05-23T03:55:59.879Z,982.55
2023-05-23T03:56:59.863Z,982.56
2023-05-23T03:57:59.857Z,982.59
2023-05-23T03:58:59.850Z,982.62
2023-05-23T03:59:59.837Z,982.62
2023-05-23T04:01:01.912Z,982.61
2023-05-23T04:01:59.921Z,982.61
2023-05-23T04:02:59.967Z,982.58
2023-05-23T04:03:59.993Z,982.57
2023-05-23T04:04:59.807Z,982.55
2023-05-23T04:05:59.893Z,982.56
2023-05-23T04:06:59.809Z,982.56
2023-05-23T04:07:59.779Z,982.56
2023-05-23T04:08:59.758Z,982.55
2023-05-23T04:09:59.757Z,982.56
2023-05-23T04:10:59.909Z,982.58
2023-05-23T04:11:59.754Z,982.58
2023-05-23T04:12:59.806Z,982.58
2023-05-23T04:13:59.724Z,982.58
2023-05-23T04:14:59.749Z,982.59
2023-05-23T04:15:59.727Z,982.58
2023-05-23T04:16:59.720Z,982.59
2023-05-23T04:17:59.802Z,982.59
2023-05-23T04:18:59.697Z,982.59
2023-05-23T04:19:59.680Z,982.58
2023-05-23T04:20:59.662Z,982.58
2023-05-23T04:21:59.775Z,982.56
2023-05-23T04:22:59.698Z,982.56
2023-05-23T04:23:59.651Z,982.57
2023-05-23T04:24:59.659Z,982.58
2023-05-23T04:25:59.625Z,982.59
2023-05-23T04:26:59.615Z,982.60
2023-05-23T04:27:59.625Z,982.63
2023-05-23T04:28:59.620Z,982.65
2023-05-23T04:29:59.640Z,982.67
2023-05-23T04:30:59.635Z,982.68
2023-05-23T04:31:59.608Z,982.69
2023-05-23T04:32:59.618Z,982.71
2023-05-23T04:33:59.578Z,982.74
2023-05-23T04:34:59.568Z,982.74
2023-05-23T04:35:59.578Z,982.74
2023-05-23T04:36:59.555Z,982.76
2023-05-23T04:37:59.626Z,982.78
2023-05-23T04:38:59.535Z,982.79
2023-05-23T04:39:59.543Z,982.78
2023-05-23T04:40:59.632Z,982.80
2023-05-23T04:41:59.547Z,982.81
2023-05-23T04:42:59.515Z,982.82
2023-05-23T04:43:59.510Z,982.82
2023-05-23T04:44:59.477Z,982.82
2023-05-23T04:45:59.532Z,982.83
2023-05-23T04:46:59.487Z,982.83
2023-05-23T04:47:59.555Z,982.85
2023-05-23T04:48:59.459Z,982.86
2023-05-23T04:49:59.457Z,982.86
2023-05-23T04:50:59.471Z,982.89
2023-05-23T04:51:59.492Z,982.88
2023-05-23T04:52:59.454Z,982.89
2023-05-23T04:53:59.499Z,982.92
2023-05-23T04:54:59.419Z,982.90
2023-05-23T04:55:59.435Z,982.90
2023-05-23T04:56:59.389Z,982.89
2023-05-23T04:57:59.441Z,982.92
2023-05-23T04:58:59.400Z,982.93
2023-05-23T04:59:59.396Z,982.94
2023-05-23T05:00:59.459Z,982.94
2023-05-23T05:01:59.367Z,982.95
2023-05-23T05:02:59.384Z,982.96
2023-05-23T05:03:59.399Z,982.96
2023-05-23T05:04:59.329Z,982.94
2023-05-23T05:05:59.339Z,982.95
2023-05-23T05:06:59.290Z,982.96
2023-05-23T05:07:59.317Z,982.99
2023-05-23T05:08:59.330Z,982.99
2023-05-23T05:10:01.078Z,983.01
2023-05-23T05:10:59.315Z,983.03
2023-05-23T05:11:59.294Z,983.03
2023-05-23T05:12:59.256Z,983.03
2023-05-23T05:13:59.294Z,983.00
2023-05-23T05:14:59.225Z,983.04
2023-05-23T05:15:59.269Z,983.04
2023-05-23T05:16:59.232Z,983.05
2023-05-23T05:17:59.222Z,983.07
2023-05-23T05:18:59.240Z,983.09
2023-05-23T05:19:59.209Z,983.10
2023-05-23T05:20:59.257Z,983.12
2023-05-23T05:21:59.173Z,983.12
2023-05-23T05:22:59.138Z,983.13
2023-05-23T05:23:59.154Z,983.14
2023-05-23T05:24:59.147Z,983.15
2023-05-23T05:25:59.241Z,983.18
2023-05-23T05:26:59.174Z,983.20
2023-05-23T05:27:59.144Z,983.21
2023-05-23T05:28:59.123Z,983.23
2023-05-23T05:29:59.123Z,983.23
2023-05-23T05:30:59.136Z,983.26
2023-05-23T05:31:59.082Z,983.27
2023-05-23T05:32:59.118Z,983.27
2023-05-23T05:33:59.105Z,983.28
2023-05-23T05:34:59.062Z,983.28
2023-05-23T05:35:59.050Z,983.27
2023-05-23T05:36:59.064Z,983.29
2023-05-23T05:37:59.047Z,983.30
2023-05-23T05:38:59.078Z,983.33
2023-05-23T05:39:59.101Z,983.35
2023-05-23T05:40:59.021Z,983.35
2023-05-23T05:41:59.110Z,983.35
2023-05-23T05:42:59.003Z,983.35
2023-05-23T05:43:59.044Z,983.32
2023-05-23T05:44:59.012Z,983.37
2023-05-23T05:45:59.014Z,983.37
2023-05-23T05:46:58.978Z,983.34
2023-05-23T05:47:59.033Z,983.36
2023-05-23T05:48:58.962Z,983.36
2023-05-23T05:49:58.936Z,983.33
2023-05-23T05:50:58.934Z,983.37
2023-05-23T05:51:58.941Z,983.31
2023-05-23T05:52:58.925Z,983.35
2023-05-23T05:53:58.955Z,983.36
2023-05-23T05:54:58.928Z,983.33
2023-05-23T05:55:58.880Z,983.35
2023-05-23T05:56:58.868Z,983.33
2023-05-23T05:57:58.987Z,983.33
2023-05-23T05:58:58.850Z,983.31
2023-05-23T05:59:58.880Z,983.31
2023-05-23T06:00:58.841Z,983.32
2023-05-23T06:01:58.897Z,983.36
2023-05-23T06:02:58.936Z,983.32
2023-05-23T06:03:59.059Z,983.38
2023-05-23T06:04:58.824Z,983.40
2023-05-23T06:05:58.822Z,983.40
2023-05-23T06:06:58.794Z,983.39
2023-05-23T06:07:58.815Z,983.39
2023-05-23T06:08:58.791Z,983.36
2023-05-23T06:09:58.796Z,983.33
2023-05-23T06:10:58.793Z,983.31
2023-05-23T06:11:58.793Z,983.28
2023-05-23T06:12:58.754Z,983.22
2023-05-23T06:13:58.827Z,983.18
2023-05-23T06:14:58.736Z,983.18
2023-05-23T06:15:58.773Z,983.17
2023-05-23T06:16:58.710Z,983.16
2023-05-23T06:17:58.826Z,983.20
2023-05-23T06:18:58.739Z,983.21
2023-05-23T06:19:58.707Z,983.23
2023-05-23T06:20:58.673Z,983.22
2023-05-23T06:21:58.676Z,983.22
2023-05-23T06:22:58.664Z,983.21
2023-05-23T06:23:58.824Z,983.21
2023-05-23T06:24:59.347Z,983.19
2023-05-23T06:25:58.697Z,983.20
2023-05-23T06:26:58.661Z,983.22
2023-05-23T06:27:58.632Z,983.21
2023-05-23T06:28:58.589Z,983.23
2023-05-23T06:29:58.602Z,983.19
2023-05-23T06:30:58.601Z,983.15
2023-05-23T06:31:58.642Z,983.16
2023-05-23T06:32:58.641Z,983.17
2023-05-23T06:33:58.615Z,983.19
2023-05-23T06:34:58.544Z,983.19
2023-05-23T06:35:58.604Z,983.15
2023-05-23T06:36:58.560Z,983.19
2023-05-23T06:37:58.526Z,983.20
2023-05-23T06:38:58.564Z,983.20
2023-05-23T06:39:58.573Z,983.25
2023-05-23T06:40:58.481Z,983.23
2023-05-23T06:41:58.496Z,983.22
2023-05-23T06:42:58.485Z,983.14
2023-05-23T06:43:58.498Z,983.22
2023-05-23T06:44:58.484Z,983.25
2023-05-23T06:45:58.596Z,983.25
2023-05-23T06:46:58.487Z,983.25
2023-05-23T06:47:58.585Z,983.30
2023-05-23T06:49:13.308Z,983.30
2023-05-23T06:49:59.462Z,983.33
2023-05-23T06:50:58.493Z,983.30
2023-05-23T06:52:05.453Z,983.38
2023-05-23T06:52:58.406Z,983.40
2023-05-23T06:53:58.420Z,983.37
2023-05-23T06:54:58.397Z,983.35
2023-05-23T06:55:58.412Z,983.37
2023-05-23T06:56:58.372Z,983.34
2023-05-23T06:57:58.396Z,983.36
2023-05-23T06:58:58.352Z,983.35
2023-05-23T06:59:58.372Z,983.38
2023-05-23T07:00:58.380Z,983.38
2023-05-23T07:01:58.423Z,983.33
2023-05-23T07:02:58.342Z,983.41
2023-05-23T07:03:58.343Z,983.36
2023-05-23T07:04:58.328Z,983.38
2023-05-23T07:05:58.365Z,983.39
2023-05-23T07:06:58.294Z,983.42
2023-05-23T07:07:58.293Z,983.43
2023-05-23T07:08:58.265Z,983.48
2023-05-23T07:09:58.278Z,983.46
2023-05-23T07:10:58.277Z,983.43
2023-05-23T07:11:58.271Z,983.47
2023-05-23T07:12:58.246Z,983.46
2023-05-23T07:13:58.257Z,983.48
2023-05-23T07:14:58.227Z,983.46
2023-05-23T07:15:58.256Z,983.43
2023-05-23T07:16:58.285Z,983.46
2023-05-23T07:17:58.279Z,983.44
2023-05-23T07:18:58.236Z,983.43
2023-05-23T07:19:58.197Z,983.45
2023-05-23T07:20:58.203Z,983.44
2023-05-23T07:21:58.185Z,983.44
2023-05-23T07:22:58.168Z,983.38
2023-05-23T07:23:58.175Z,983.39
2023-05-23T07:24:58.177Z,983.39
2023-05-23T07:26:02.480Z,983.42
2023-05-23T07:26:58.112Z,983.41
2023-05-23T07:27:58.162Z,983.42
2023-05-23T07:28:58.134Z,983.39
2023-05-23T07:29:58.135Z,983.39
2023-05-23T07:30:58.221Z,983.41
2023-05-23T07:31:58.111Z,983.41
2023-05-23T07:32:58.192Z,983.41
2023-05-23T07:33:58.570Z,983.39
2023-05-23T07:34:58.083Z,983.43
2023-05-23T07:35:58.092Z,983.42
2023-05-23T07:36:58.052Z,983.48
2023-05-23T07:37:58.074Z,983.46
2023-05-23T07:38:58.021Z,983.46
2023-05-23T07:39:58.048Z,983.48
2023-05-23T07:41:09.881Z,983.49
2023-05-23T07:41:59.061Z,983.50
2023-05-23T07:42:57.993Z,983.52
2023-05-23T07:43:57.994Z,983.54
2023-05-23T07:44:58.002Z,983.57
2023-05-23T07:45:57.983Z,983.55
2023-05-23T07:46:58.019Z,983.57
2023-05-23T07:47:58.038Z,983.56
2023-05-23T07:48:57.985Z,983.54
2023-05-23T07:49:57.975Z,983.56
2023-05-23T07:50:57.942Z,983.58
2023-05-23T07:51:57.953Z,983.52
2023-05-23T07:52:57.904Z,983.56
2023-05-23T07:53:57.935Z,983.59
2023-05-23T07:54:57.932Z,983.58
2023-05-23T07:55:57.902Z,983.61
2023-05-23T07:56:57.887Z,983.61
2023-05-23T07:57:57.899Z,983.64
2023-05-23T07:58:57.882Z,983.64
2023-05-23T07:59:57.898Z,983.62
2023-05-23T08:00:57.853Z,983.67
2023-05-23T08:01:57.867Z,983.63
2023-05-23T08:02:57.873Z,983.69
2023-05-23T08:03:57.870Z,983.67
2023-05-23T08:04:57.802Z,983.67
2023-05-23T08:05:57.836Z,983.67
2023-05-23T08:07:04.991Z,983.67
2023-05-23T08:07:58.816Z,983.66
2023-05-23T08:08:57.802Z,983.65
2023-05-23T08:09:57.800Z,983.69
2023-05-23T08:10:57.779Z,983.65
2023-05-23T08:11:57.796Z,983.66
2023-05-23T08:12:57.744Z,983.70
2023-05-23T08:13:59.432Z,983.72
2023-05-23T08:14:57.731Z,983.71
2023-05-23T08:15:57.792Z,983.73
2023-05-23T08:16:57.867Z,983.76
2023-05-23T08:17:57.765Z,983.73
2023-05-23T08:18:57.748Z,983.75
2023-05-23T08:19:57.748Z,983.77
2023-05-23T08:20:57.670Z,983.78
2023-05-23T08:21:57.709Z,983.77
2023-05-23T08:22:57.673Z,983.79
2023-05-23T08:23:57.664Z,983.78
2023-05-23T08:24:57.675Z,983.79
2023-05-23T08:25:57.725Z,983.81
2023-05-23T08:26:57.634Z,983.83
2023-05-23T08:27:57.682Z,983.83
2023-05-23T08:28:57.616Z,983.85
2023-05-23T08:29:57.652Z,983.86
2023-05-23T08:30:57.632Z,983.85
2023-05-23T08:31:57.673Z,983.87
2023-05-23T08:32:57.614Z,983.89
2023-05-23T08:33:57.601Z,983.89
2023-05-23T08:34:57.579Z,983.89
2023-05-23T08:35:57.603Z,983.89
2023-05-23T08:36:57.569Z,983.90
2023-05-23T08:37:57.595Z,983.93
2023-05-23T08:38:57.525Z,983.94
2023-05-23T08:39:57.524Z,983.93
2023-05-23T08:40:57.519Z,983.93
2023-05-23T08:41:57.525Z,983.97
2023-05-23T08:42:57.576Z,983.96
2023-05-23T08:43:57.558Z,984.01
2023-05-23T08:44:57.507Z,983.98
2023-05-23T08:45:57.532Z,983.99
2023-05-23T08:46:57.497Z,984.00
2023-05-23T08:47:57.565Z,984.02
2023-05-23T08:48:57.479Z,984.03
2023-05-23T08:49:57.453Z,984.01
2023-05-23T08:50:57.445Z,984.01
2023-05-23T08:51:57.438Z,983.99
2023-05-23T08:52:57.460Z,984.03
2023-05-23T08:53:57.601Z,984.06
2023-05-23T08:54:57.405Z,984.02
2023-05-23T08:55:57.444Z,984.06
2023-05-23T08:56:57.405Z,984.04
2023-05-23T08:57:57.382Z,984.07
2023-05-23T08:58:57.383Z,984.05
2023-05-23T08:59:57.380Z,984.07
2023-05-23T09:00:57.392Z,984.09
2023-05-23T09:01:57.388Z,984.08
2023-05-23T09:02:57.456Z,984.10
2023-05-23T09:03:57.369Z,984.09
2023-05-23T09:04:57.337Z,984.14
2023-05-23T09:05:57.460Z,984.13
2023-05-23T09:06:57.293Z,984.16
2023-05-23T09:07:57.322Z,984.17
2023-05-23T09:08:57.286Z,984.14
2023-05-23T09:09:57.356Z,984.15
2023-05-23T09:10:57.272Z,984.18
2023-05-23T09:11:57.285Z,984.20
2023-05-23T09:12:57.230Z,984.16
2023-05-23T09:13:57.273Z,984.21
2023-05-23T09:14:57.215Z,984.21
2023-05-23T09:15:57.284Z,984.23
2023-05-23T09:16:57.210Z,984.23
2023-05-23T09:17:57.323Z,984.24
2023-05-23T09:18:57.245Z,984.25
2023-05-23T09:19:57.222Z,984.26
2023-05-23T09:20:57.182Z,984.25
2023-05-23T09:21:57.194Z,984.27
2023-05-23T09:22:57.165Z,984.30
2023-05-23T09:23:57.188Z,984.31
2023-05-23T09:24:57.165Z,984.28
2023-05-23T09:25:57.183Z,984.32
2023-05-23T09:26:57.130Z,984.27
2023-05-23T09:27:57.186Z,984.29
2023-05-23T09:28:57.107Z,984.31
2023-05-23T09:29:57.150Z,984.40
2023-05-23T09:30:57.088Z,984.29
2023-05-23T09:31:57.250Z,984.37
2023-05-23T09:32:57.169Z,984.29
2023-05-23T09:33:57.076Z,984.35
2023-05-23T09:34:57.131Z,984.37
2023-05-23T09:35:57.064Z,984.36
2023-05-23T09:36:57.062Z,984.29
2023-05-23T09:37:57.071Z,984.34
2023-05-23T09:38:57.041Z,984.33
2023-05-23T09:39:57.087Z,984.29
2023-05-23T09:40:57.017Z,984.33
2023-05-23T09:41:57.020Z,984.36
2023-05-23T09:42:57.033Z,984.35
2023-05-23T09:43:56.994Z,984.38
2023-05-23T09:44:57.002Z,984.33
2023-05-23T09:45:56.985Z,984.33
2023-05-23T09:46:56.981Z,984.35
2023-05-23T09:47:56.979Z,984.35
2023-05-23T09:48:56.971Z,984.41
2023-05-23T09:49:56.953Z,984.39
2023-05-23T09:50:56.964Z,984.43
2023-05-23T09:51:56.928Z,984.35
2023-05-23T09:52:56.891Z,984.41
2023-05-23T09:53:56.913Z,984.42
2023-05-23T09:54:56.878Z,984.47
2023-05-23T09:55:56.921Z,984.42
2023-05-23T09:56:57.175Z,984.46
2023-05-23T09:57:56.885Z,984.44
2023-05-23T09:58:56.899Z,984.47
2023-05-23T09:59:56.884Z,984.48
2023-05-23T10:00:56.867Z,984.46
2023-05-23T10:01:56.855Z,984.48
2023-05-23T10:02:56.887Z,984.48
2023-05-23T10:03:59.606Z,984.50
2023-05-23T10:04:56.817Z,984.53
2023-05-23T10:05:56.818Z,984.54
2023-05-23T10:06:56.776Z,984.55
2023-05-23T10:07:56.796Z,984.54
2023-05-23T10:08:56.772Z,984.54
2023-05-23T10:09:58.906Z,984.52
2023-05-23T10:10:56.847Z,984.54
2023-05-23T10:11:56.760Z,984.56
2023-05-23T10:12:56.732Z,984.54
2023-05-23T10:13:56.890Z,984.56
2023-05-23T10:14:56.737Z,984.57
2023-05-23T10:15:57.641Z,984.60
2023-05-23T10:16:56.737Z,984.61
2023-05-23T10:17:56.784Z,984.61
2023-05-23T10:18:56.786Z,984.62
2023-05-23T10:19:56.700Z,984.62
2023-05-23T10:20:56.663Z,984.61
2023-05-23T10:21:56.713Z,984.59
2023-05-23T10:22:56.648Z,984.65
2023-05-23T10:23:56.686Z,984.62
2023-05-23T10:24:56.631Z,984.66
2023-05-23T10:25:56.687Z,984.67
2023-05-23T10:26:56.604Z,984.66
2023-05-23T10:27:56.620Z,984.70
2023-05-23T10:28:56.594Z,984.67
2023-05-23T10:29:56.601Z,984.67
2023-05-23T10:30:56.677Z,984.68
2023-05-23T10:31:56.606Z,984.70
2023-05-23T10:32:56.596Z,984.71
2023-05-23T10:33:56.590Z,984.74
2023-05-23T10:34:56.560Z,984.73
2023-05-23T10:35:56.572Z,984.75
2023-05-23T10:36:56.529Z,984.79
2023-05-23T10:37:56.551Z,984.80
2023-05-23T10:38:56.500Z,984.77
2023-05-23T10:39:56.513Z,984.82
2023-05-23T10:40:56.516Z,984.87
2023-05-23T10:41:56.528Z,984.84
2023-05-23T10:42:56.491Z,985.06
2023-05-23T10:43:56.494Z,984.89
2023-05-23T10:44:56.492Z,984.89
2023-05-23T10:45:56.528Z,984.92
2023-05-23T10:46:56.495Z,984.96
2023-05-23T10:47:56.455Z,984.95
2023-05-23T10:48:56.445Z,984.96
2023-05-23T10:49:56.448Z,984.98
2023-05-23T10:50:56.435Z,984.98
2023-05-23T10:51:56.439Z,985.00
2023-05-23T10:52:56.434Z,985.00
2023-05-23T10:53:56.407Z,985.03
2023-05-23T10:54:56.426Z,985.01
2023-05-23T10:55:56.410Z,985.02
2023-05-23T10:56:56.372Z,985.07
2023-05-23T10:57:56.363Z,985.02
2023-05-23T10:58:56.387Z,985.08
2023-05-23T10:59:56.384Z,985.09
2023-05-23T11:00:56.340Z,985.07
2023-05-23T11:01:56.561Z,985.12
2023-05-23T11:02:56.432Z,985.08
2023-05-23T11:03:56.714Z,985.12
2023-05-23T11:04:56.311Z,985.14
2023-05-23T11:05:56.320Z,985.12
2023-05-23T11:06:56.309Z,985.15
2023-05-23T11:07:56.315Z,985.12
2023-05-23T11:08:56.262Z,985.17
2023-05-23T11:09:56.289Z,985.18
2023-05-23T11:10:56.298Z,985.21
2023-05-23T11:11:56.285Z,985.15
2023-05-23T11:12:56.272Z,985.19
2023-05-23T11:13:56.264Z,985.21
2023-05-23T11:14:56.291Z,985.20
2023-05-23T11:15:56.294Z,985.22
2023-05-23T11:16:56.287Z,985.19
2023-05-23T11:17:56.287Z,985.21
2023-05-23T11:18:56.279Z,985.15
2023-05-23T11:19:56.191Z,985.20
2023-05-23T11:20:56.183Z,985.23
2023-05-23T11:21:56.196Z,985.21
2023-05-23T11:22:56.208Z,985.23
2023-05-23T11:23:56.167Z,985.24
2023-05-23T11:24:56.151Z,985.29
2023-05-23T11:25:56.133Z,985.29
2023-05-23T11:26:56.135Z,985.25
2023-05-23T11:27:56.154Z,985.27
2023-05-23T11:28:56.106Z,985.22
2023-05-23T11:29:56.130Z,985.22
2023-05-23T11:30:56.100Z,985.23
2023-05-23T11:31:56.132Z,985.24
2023-05-23T11:32:56.206Z,985.21
2023-05-23T11:33:56.117Z,985.21
2023-05-23T11:34:56.053Z,985.23
2023-05-23T11:35:56.076Z,985.26
2023-05-23T11:36:56.042Z,985.30
2023-05-23T11:37:56.068Z,985.22
2023-05-23T11:38:56.032Z,985.26
2023-05-23T11:39:56.067Z,985.29
2023-05-23T11:40:56.023Z,985.26
2023-05-23T11:41:56.033Z,985.24
2023-05-23T11:42:56.016Z,985.29
2023-05-23T11:43:56.021Z,985.28
2023-05-23T11:44:55.974Z,985.28
2023-05-23T11:45:56.024Z,985.30
2023-05-23T11:46:55.981Z,985.30
2023-05-23T11:47:56.050Z,985.27
2023-05-23T11:48:55.973Z,985.31
2023-05-23T11:49:55.957Z,985.25
2023-05-23T11:50:55.922Z,985.30
2023-05-23T11:51:55.943Z,985.32
2023-05-23T11:52:55.916Z,985.35
2023-05-23T11:53:55.930Z,985.35
2023-05-23T11:54:57.982Z,985.36
2023-05-23T11:55:55.921Z,985.35
2023-05-23T11:56:55.876Z,985.40
2023-05-23T11:57:55.909Z,985.44
2023-05-23T11:58:55.918Z,985.36
2023-05-23T11:59:55.872Z,985.42
2023-05-23T12:00:55.857Z,985.38
2023-05-23T12:01:55.855Z,985.41
2023-05-23T12:02:55.909Z,985.39
2023-05-23T12:03:56.072Z,985.41
2023-05-23T12:04:55.905Z,985.43
2023-05-23T12:05:55.824Z,985.44
2023-05-23T12:06:55.835Z,985.42
2023-05-23T12:07:55.836Z,985.47
2023-05-23T12:08:55.790Z,985.40
2023-05-23T12:09:55.836Z,985.43
2023-05-23T12:10:55.771Z,985.45
2023-05-23T12:11:55.776Z,985.46
2023-05-23T12:12:55.735Z,985.44
2023-05-23T12:13:55.757Z,985.45
2023-05-23T12:14:55.719Z,985.46
2023-05-23T12:15:55.765Z,985.46
2023-05-23T12:16:55.708Z,985.49
2023-05-23T12:17:55.758Z,985.53
2023-05-23T12:18:55.735Z,985.51
2023-05-23T12:19:55.713Z,985.50
2023-05-23T12:20:55.719Z,985.43
2023-05-23T12:21:55.692Z,985.55
2023-05-23T12:22:55.681Z,985.59
2023-05-23T12:23:55.732Z,985.49
2023-05-23T12:24:55.659Z,985.55
2023-05-23T12:25:55.688Z,985.48
2023-05-23T12:26:55.666Z,985.42
2023-05-23T12:27:55.680Z,985.54